Hauptseite
METAR-TAF:

METAR-TAF

Flughäfen :

South Jersey Regional Airport

Mount Holly, New Jersey, Vereinigte Staaten

Breite: 39-56-26N, Länge: 074-50-28W, Höhe: 16 m

Beobachtung

Neuester Wetterbericht von vor 31 Minuten, um 04:54 UTC
Wind 6 kt aus West/Nordwest
Temperatur -1°C
Luftfeuchtigkeit 46%
Luftdruck 1019 hPa
Sichtweite: 16.1 km
Himmel klar

METAR: KVAY 210454Z AUTO 29006KT 10SM CLR M01/M11 A3008 RMK AO2 SLP186 T10061106 400501011

Zeit: 00:25 (05:25 UTC)


TAF: fehlend

Wetterbeobachtungen und Prognosen von mehr als 4000 Flughäfen (METAR und TAF Bericht).

Die verfügbaren Stationen werden durch gelbe und rote Markierungen auf der Karte dargestellt.

Führen Sie die Maus auf sie, um den Namen der Station zu sehen.

Darauf klicken, um die Beobachtung von Wetterbeobachtungen und Prognosen zu sehen.

Um die Karte zu ändern : klicken Sie auf den grünen Tasten mit einem schwarzen Kreuz Zum Vergrößern, auf den grünen Button mit einem Gedankenstrich zu verkleinern, oder auf die grünen Pfeile für benachbarte Karten.


METAR-TAF: